Time;durP1;ratioP1;P1;durP2;ratioP2;P2;SDS_P1;SDS_P2;PMS_P1;PMS_P2;Temp;Humidity;BMP_temperature;BMP_pressure;BME280_temperature;BME280_humidity;BME280_pressure;Samples;Min_cycle;Max_cycle;Signal;HPM_P1;HPM_P2
2022/03/13 00:00:10;;;;;;;6.27;5.67;;;;;;;5.72;39.53;95393.19;4311639;33;20303;-61
2022/03/13 00:02:36;;;;;;;6.97;6.30;;;;;;;5.72;39.43;95397.66;4296215;33;20333;-61
2022/03/13 00:05:01;;;;;;;6.87;6.17;;;;;;;5.46;40.03;95389.69;4301521;33;20291;-61
2022/03/13 00:07:28;;;;;;;6.80;6.20;;;;;;;5.60;39.52;95395.28;4313886;33;20212;-61
2022/03/13 00:09:53;;;;;;;7.07;5.37;;;;;;;5.69;39.63;95385.00;4303330;33;20198;-61
2022/03/13 00:12:26;;;;;;;6.37;5.50;;;;;;;5.51;39.88;95384.44;4313595;33;20306;-61
2022/03/13 00:14:54;;;;;;;6.17;5.53;;;;;;;5.56;39.77;95388.94;4303586;33;20202;-61
2022/03/13 00:17:20;;;;;;;6.03;5.43;;;;;;;5.54;39.91;95383.16;4301062;33;20360;-60
2022/03/13 00:19:46;;;;;;;8.00;6.20;;;;;;;5.66;40.02;95393.41;4305821;33;20279;-61
2022/03/13 00:22:13;;;;;;;6.70;6.03;;;;;;;5.42;40.43;95388.63;4300959;33;20302;-60
2022/03/13 00:24:38;;;;;;;7.03;6.33;;;;;;;5.36;40.75;95394.94;4291717;33;20295;-61
2022/03/13 00:27:04;;;;;;;6.97;6.27;;;;;;;5.34;41.22;95380.47;4304583;33;20302;-61
2022/03/13 00:29:30;;;;;;;7.63;6.13;;;;;;;5.10;42.26;95391.41;4299455;33;20194;-61
2022/03/13 00:31:56;;;;;;;6.97;6.30;;;;;;;4.80;42.36;95392.06;4297969;33;20186;-61
2022/03/13 00:34:21;;;;;;;7.53;6.73;;;;;;;4.58;42.97;95387.97;4289449;33;20295;-61
2022/03/13 00:36:46;;;;;;;8.10;6.50;;;;;;;4.78;43.25;95393.38;4302924;33;20182;-61
2022/03/13 00:39:12;;;;;;;7.47;6.60;;;;;;;4.83;43.02;95385.50;4307823;33;20202;-61
2022/03/13 00:41:38;;;;;;;7.17;6.47;;;;;;;4.94;42.93;95381.09;4312022;33;20191;-61
2022/03/13 00:44:04;;;;;;;7.10;6.40;;;;;;;5.03;42.35;95382.97;4304341;33;20236;-61
2022/03/13 00:46:30;;;;;;;9.33;6.50;;;;;;;5.05;42.26;95378.25;4317122;33;20252;-61
2022/03/13 00:48:55;;;;;;;7.07;6.47;;;;;;;4.82;43.02;95373.41;4305035;33;20276;-61
2022/03/13 00:51:20;;;;;;;7.30;6.70;;;;;;;4.60;43.60;95388.50;4297964;33;20256;-61
2022/03/13 00:53:46;;;;;;;7.50;6.80;;;;;;;4.51;43.64;95372.47;4300635;33;20194;-61
2022/03/13 00:56:11;;;;;;;7.00;6.33;;;;;;;4.79;43.32;95376.53;4312685;33;20209;-60
2022/03/13 00:58:40;;;;;;;7.20;6.43;;;;;;;4.61;43.46;95374.34;4304398;33;20191;-61
2022/03/13 01:01:07;;;;;;;6.97;6.37;;;;;;;4.73;43.40;95367.84;4284488;33;20265;-61
2022/03/13 01:03:35;;;;;;;9.00;6.67;;;;;;;4.70;43.92;95360.47;4290893;33;20287;-61
2022/03/13 01:06:01;;;;;;;7.60;6.87;;;;;;;4.67;43.89;95354.94;4302995;33;20366;-60
2022/03/13 01:08:28;;;;;;;7.97;7.17;;;;;;;4.31;44.36;95357.38;4290121;33;20326;-61
2022/03/13 01:10:54;;;;;;;7.23;6.53;;;;;;;4.39;44.30;95363.97;4288958;33;20287;-61
2022/03/13 01:13:21;;;;;;;8.83;6.63;;;;;;;4.52;44.33;95357.50;4288977;33;20287;-60
2022/03/13 01:15:48;;;;;;;8.50;7.60;;;;;;;4.40;44.53;95349.78;4302233;33;20302;-61
2022/03/13 01:18:13;;;;;;;8.00;7.20;;;;;;;4.40;44.72;95337.44;4300683;33;20291;-61
2022/03/13 01:20:38;;;;;;;8.67;6.80;;;;;;;4.30;45.33;95340.03;4289709;33;20306;-61
2022/03/13 01:23:04;;;;;;;7.50;6.70;;;;;;;4.32;45.08;95337.94;4302675;33;20198;-61
2022/03/13 01:25:29;;;;;;;7.73;7.03;;;;;;;4.35;45.05;95339.28;4302253;33;20194;-61
2022/03/13 01:27:54;;;;;;;8.97;6.60;;;;;;;4.36;45.01;95341.66;4302526;33;20233;-61
2022/03/13 01:30:20;;;;;;;8.13;7.33;;;;;;;4.47;44.64;95342.47;4291740;33;20228;-60
2022/03/13 01:32:52;;;;;;;7.77;6.97;;;;;;;4.43;44.92;95328.28;4300950;33;20193;-61
2022/03/13 01:35:22;;;;;;;10.47;7.07;;;;;;;4.43;44.88;95330.91;4302156;33;20190;-61
2022/03/13 01:37:47;;;;;;;8.60;6.30;;;;;;;4.50;44.93;95341.97;4288774;33;20275;-61
2022/03/13 01:40:19;;;;;;;8.53;6.40;;;;;;;4.26;45.28;95328.44;4286406;33;20291;-61
2022/03/13 01:42:45;;;;;;;7.27;6.40;;;;;;;4.50;45.21;95328.84;4299415;33;20190;-61
2022/03/13 01:45:12;;;;;;;8.13;6.27;;;;;;;4.54;44.73;95334.38;4308409;33;20338;-61
2022/03/13 01:47:38;;;;;;;7.60;6.90;;;;;;;4.68;44.51;95331.03;4296880;33;20242;-61
2022/03/13 01:50:05;;;;;;;9.63;6.73;;;;;;;4.49;44.73;95335.94;4314370;33;20314;-60
2022/03/13 01:52:32;;;;;;;9.87;6.90;;;;;;;4.58;44.48;95330.19;4288134;33;20293;-61
2022/03/13 01:54:58;;;;;;;7.73;6.83;;;;;;;4.68;44.54;95325.78;4301722;33;20284;-61
2022/03/13 01:57:24;;;;;;;7.27;6.67;;;;;;;4.85;44.14;95336.09;4306227;33;20303;-60
2022/03/13 02:00:00;;;;;;;7.60;6.90;;;;;;;4.88;44.18;95327.72;4288553;33;20229;-61
2022/03/13 02:02:29;;;;;;;8.00;6.67;;;;;;;4.80;44.31;95328.97;4302471;33;20341;-60
2022/03/13 02:04:57;;;;;;;9.10;7.57;;;;;;;4.80;44.41;95323.72;4305088;33;20379;-61
2022/03/13 02:07:23;;;;;;;7.50;6.77;;;;;;;4.74;44.56;95324.78;4292240;33;20295;-61
2022/03/13 02:09:50;;;;;;;9.07;6.83;;;;;;;4.75;44.36;95318.47;4316924;33;20343;-61
2022/03/13 02:12:20;;;;;;;7.33;6.63;;;;;;;4.68;44.50;95325.78;4295959;33;20406;-61
2022/03/13 02:14:46;;;;;;;6.60;6.00;;;;;;;4.47;44.78;95324.09;4289190;33;20310;-60
2022/03/13 02:17:12;;;;;;;7.27;6.50;;;;;;;4.45;44.77;95328.81;4303104;33;20346;-61
2022/03/13 02:19:37;;;;;;;6.90;6.10;;;;;;;4.36;44.98;95325.09;4289086;33;20288;-61
2022/03/13 02:22:03;;;;;;;6.93;6.23;;;;;;;4.41;44.35;95319.84;4299812;33;20205;-61
2022/03/13 02:24:29;;;;;;;7.17;5.93;;;;;;;4.43;44.07;95323.03;4309369;33;20237;-60
2022/03/13 02:27:03;;;;;;;7.00;6.30;;;;;;;4.32;43.78;95321.41;4305388;33;20294;-61
2022/03/13 02:29:29;;;;;;;6.73;6.13;;;;;;;4.32;43.87;95322.19;4307419;33;20217;-60
2022/03/13 02:31:57;;;;;;;7.40;5.47;;;;;;;4.39;43.45;95319.31;4292965;33;20359;-61
2022/03/13 02:34:23;;;;;;;5.70;5.23;;;;;;;4.55;43.01;95321.00;4298969;33;20334;-61
2022/03/13 02:36:51;;;;;;;6.50;5.97;;;;;;;4.68;42.53;95322.38;4302767;33;20326;-60
2022/03/13 02:39:18;;;;;;;5.57;5.03;;;;;;;4.53;42.64;95320.47;4294147;33;20203;-60
2022/03/13 02:41:44;;;;;;;6.37;5.13;;;;;;;4.45;42.84;95320.94;4319007;33;20291;-61
2022/03/13 02:44:12;;;;;;;5.40;4.90;;;;;;;4.45;42.84;95313.06;4300070;33;20287;-61
2022/03/13 02:46:46;;;;;;;6.83;6.03;;;;;;;4.45;42.71;95315.69;4315470;33;20350;-61
2022/03/13 02:49:21;;;;;;;6.17;5.53;;;;;;;4.54;42.70;95308.13;4302977;33;20283;-61
2022/03/13 02:51:49;;;;;;;6.20;5.30;;;;;;;4.27;43.06;95318.72;4298790;33;20321;-60
2022/03/13 02:54:17;;;;;;;5.90;5.30;;;;;;;4.50;42.79;95315.72;4294343;33;20309;-61
2022/03/13 02:56:43;;;;;;;6.00;5.37;;;;;;;4.44;42.53;95319.34;4304100;33;20326;-60
2022/03/13 02:59:09;;;;;;;10.17;5.63;;;;;;;4.54;42.32;95318.63;4292731;33;20357;-61
2022/03/13 03:01:37;;;;;;;6.50;4.90;;;;;;;4.47;42.40;95324.09;4276463;33;20287;-61
2022/03/13 03:04:02;;;;;;;6.03;5.43;;;;;;;4.36;42.43;95311.97;4291961;33;20312;-60
2022/03/13 03:06:29;;;;;;;5.20;4.80;;;;;;;4.21;42.67;95319.72;4310925;33;20280;-61
2022/03/13 03:08:54;;;;;;;5.73;5.17;;;;;;;4.14;42.37;95326.00;4297495;33;20198;-61
2022/03/13 03:11:21;;;;;;;6.07;5.30;;;;;;;4.29;42.34;95324.53;4302766;33;20301;-61
2022/03/13 03:13:46;;;;;;;5.40;5.00;;;;;;;4.23;42.45;95328.16;4309502;33;20281;-61
2022/03/13 03:16:11;;;;;;;6.97;5.13;;;;;;;4.15;42.42;95324.19;4292324;33;20299;-61
2022/03/13 03:18:36;;;;;;;5.90;5.30;;;;;;;4.25;42.44;95324.22;4308337;33;20202;-61
2022/03/13 03:21:06;;;;;;;6.10;5.17;;;;;;;4.16;42.56;95322.34;4305698;33;20232;-61
2022/03/13 03:23:31;;;;;;;5.93;5.33;;;;;;;4.17;43.06;95329.16;4300743;33;27433;-61
2022/03/13 03:25:57;;;;;;;5.87;5.27;;;;;;;3.90;43.98;95335.28;4304776;33;20283;-61
2022/03/13 03:28:23;;;;;;;6.10;5.10;;;;;;;3.98;43.57;95336.63;4303841;33;20194;-61
2022/03/13 03:30:49;;;;;;;5.37;4.90;;;;;;;3.83;44.18;95336.53;4303810;33;20214;-61
2022/03/13 03:33:16;;;;;;;6.67;5.63;;;;;;;3.85;43.89;95334.44;4294046;33;20182;-60
2022/03/13 03:35:42;;;;;;;5.70;5.10;;;;;;;3.89;43.98;95333.69;4296315;33;20295;-59
2022/03/13 03:38:07;;;;;;;5.60;5.10;;;;;;;3.77;43.92;95333.06;4311628;33;20290;-61
2022/03/13 03:40:34;;;;;;;7.57;5.37;;;;;;;3.81;43.95;95339.41;4290635;33;20294;-61
2022/03/13 03:43:02;;;;;;;7.13;5.80;;;;;;;3.65;44.60;95337.69;4306997;33;20241;-60
2022/03/13 03:45:28;;;;;;;7.07;5.33;;;;;;;3.70;44.58;95335.91;4303768;33;20313;-61
2022/03/13 03:47:53;;;;;;;7.73;5.33;;;;;;;3.75;44.83;95327.25;4296783;33;20267;-60
2022/03/13 03:50:19;;;;;;;6.27;5.67;;;;;;;3.79;44.89;95333.59;4301547;33;20237;-60
2022/03/13 03:52:45;;;;;;;6.60;6.00;;;;;;;3.64;45.34;95338.72;4288606;33;20213;-60
2022/03/13 03:55:10;;;;;;;9.03;5.93;;;;;;;3.66;45.52;95341.91;4315030;33;20240;-61
2022/03/13 03:57:35;;;;;;;6.23;5.63;;;;;;;3.68;45.17;95338.00;4303407;33;20186;-61
2022/03/13 04:00:01;;;;;;;5.53;4.90;;;;;;;3.81;44.78;95342.03;4306965;33;20198;-61
2022/03/13 04:02:26;;;;;;;7.37;5.83;;;;;;;3.82;44.92;95340.19;4303395;33;20196;-61
2022/03/13 04:04:51;;;;;;;6.47;5.87;;;;;;;3.92;44.68;95348.94;4311991;33;20196;-61
2022/03/13 04:07:18;;;;;;;8.17;5.50;;;;;;;3.80;44.92;95349.09;4292462;33;20218;-61
2022/03/13 04:09:43;;;;;;;5.87;5.37;;;;;;;3.83;45.03;95353.06;4294239;33;20212;-59
2022/03/13 04:12:09;;;;;;;6.23;5.60;;;;;;;3.88;45.11;95347.84;4304831;33;20350;-61
2022/03/13 04:14:35;;;;;;;5.47;4.97;;;;;;;3.86;45.16;95349.94;4289171;33;20241;-61
2022/03/13 04:17:01;;;;;;;5.27;4.77;;;;;;;4.00;44.91;95353.72;4289934;33;20213;-61
2022/03/13 04:19:27;;;;;;;6.50;5.90;;;;;;;3.84;45.65;95352.00;4296537;33;20283;-61
2022/03/13 04:21:53;;;;;;;8.43;5.93;;;;;;;3.76;45.89;95348.00;4296970;33;20186;-61
2022/03/13 04:24:19;;;;;;;6.63;5.53;;;;;;;3.84;46.00;95345.97;4291002;33;20298;-61
2022/03/13 04:26:44;;;;;;;11.90;6.20;;;;;;;4.03;45.41;95342.72;4305015;33;20322;-61
2022/03/13 04:29:10;;;;;;;6.10;5.43;;;;;;;3.92;45.74;95346.31;4305350;33;20186;-61
2022/03/13 04:31:40;;;;;;;6.73;5.47;;;;;;;3.81;45.96;95349.88;4276775;33;20248;-61
2022/03/13 04:34:07;;;;;;;5.87;5.40;;;;;;;3.88;45.88;95357.56;4298372;33;20284;-61
2022/03/13 04:36:33;;;;;;;8.97;5.57;;;;;;;4.09;45.21;95360.09;4300953;33;20373;-61
2022/03/13 04:39:06;;;;;;;7.70;6.50;;;;;;;4.12;45.10;95358.81;4303453;33;20302;-61
2022/03/13 04:41:32;;;;;;;6.33;5.73;;;;;;;4.01;45.31;95360.53;4300520;33;20246;-61
2022/03/13 04:43:58;;;;;;;5.73;5.23;;;;;;;4.00;45.72;95361.59;4304635;33;20345;-61
2022/03/13 04:46:23;;;;;;;5.80;5.20;;;;;;;3.82;46.25;95361.97;4296315;33;20322;-61
2022/03/13 04:48:49;;;;;;;6.30;5.80;;;;;;;3.72;46.72;95364.50;4300905;33;20229;-61
2022/03/13 04:51:15;;;;;;;6.53;5.90;;;;;;;3.28;47.83;95361.19;4296340;33;20190;-62
2022/03/13 04:53:41;;;;;;;6.23;5.63;;;;;;;3.24;48.43;95363.50;4301696;33;20323;-61
2022/03/13 04:56:07;;;;;;;8.40;6.20;;;;;;;3.37;47.67;95364.94;4307450;33;20258;-60
2022/03/13 04:58:32;;;;;;;6.97;6.33;;;;;;;3.41;47.94;95374.69;4311932;33;20182;-61
2022/03/13 05:00:58;;;;;;;8.80;6.17;;;;;;;3.32;48.41;95373.56;4312506;33;20206;-61
2022/03/13 05:03:24;;;;;;;7.07;6.43;;;;;;;3.51;47.75;95376.66;4287611;33;20191;-60
2022/03/13 05:05:50;;;;;;;6.80;6.17;;;;;;;3.31;48.28;95384.31;4286771;33;20229;-61
2022/03/13 05:08:16;;;;;;;6.63;6.10;;;;;;;3.45;47.77;95382.87;4302259;33;20244;-60
2022/03/13 05:10:47;;;;;;;8.20;6.35;;;;;;;3.50;47.30;95384.75;4303420;33;20295;-61
2022/03/13 05:13:14;;;;;;;6.43;5.78;;;;;;;3.61;47.38;95378.56;4301319;33;20186;-61
2022/03/13 05:15:41;;;;;;;7.07;5.90;;;;;;;3.54;47.80;95386.62;4303842;33;20249;-61
2022/03/13 05:18:07;;;;;;;8.23;6.47;;;;;;;3.43;48.21;95392.81;4300441;33;20307;-61
2022/03/13 05:20:34;;;;;;;7.00;6.30;;;;;;;3.49;48.06;95391.03;4304701;33;20382;-61
2022/03/13 05:23:00;;;;;;;6.63;6.00;;;;;;;3.53;47.77;95387.69;4305147;33;20230;-61
2022/03/13 05:25:30;;;;;;;7.67;5.87;;;;;;;3.49;47.91;95391.03;4306658;33;20334;-61
2022/03/13 05:27:56;;;;;;;6.70;6.03;;;;;;;3.22;49.03;95397.03;4302191;33;20339;-61
2022/03/13 05:30:22;;;;;;;6.53;5.93;;;;;;;3.22;48.79;95399.66;4300251;33;20279;-61
2022/03/13 05:32:48;;;;;;;6.33;5.83;;;;;;;3.44;48.33;95400.44;4299746;33;20200;-61
2022/03/13 05:35:16;;;;;;;6.45;5.82;;;;;;;3.45;48.37;95404.63;4308743;33;20350;-60
2022/03/13 05:37:43;;;;;;;7.53;6.50;;;;;;;3.49;48.31;95398.91;4303602;33;20186;-61
2022/03/13 05:40:12;;;;;;;6.60;6.00;;;;;;;3.34;48.71;95399.50;4302034;33;20323;-60
2022/03/13 05:42:38;;;;;;;7.70;6.03;;;;;;;3.39;48.84;95407.44;4306877;33;20300;-61
2022/03/13 05:45:04;;;;;;;7.03;6.40;;;;;;;3.48;48.93;95405.19;4287516;33;20238;-61
2022/03/13 05:47:29;;;;;;;6.43;5.87;;;;;;;3.27;49.61;95410.22;4300657;33;20330;-60
2022/03/13 05:49:54;;;;;;;6.83;6.10;;;;;;;3.10;49.65;95414.72;4307397;33;20200;-61
2022/03/13 05:52:20;;;;;;;6.70;6.07;;;;;;;3.12;49.90;95417.88;4304217;33;20289;-61
2022/03/13 05:54:45;;;;;;;7.13;6.50;;;;;;;3.25;49.74;95417.53;4307131;33;20197;-61
2022/03/13 05:57:11;;;;;;;6.60;6.00;;;;;;;3.23;49.70;95424.03;4304300;33;20186;-60
2022/03/13 05:59:38;;;;;;;6.70;6.10;;;;;;;3.20;49.67;95422.69;4294150;33;20258;-61
2022/03/13 06:02:04;;;;;;;6.60;5.78;;;;;;;3.24;49.25;95426.41;4303075;33;20362;-61
2022/03/13 06:04:37;;;;;;;7.33;6.27;;;;;;;3.28;49.28;95427.53;4302685;33;20229;-61
2022/03/13 06:07:03;;;;;;;6.53;5.90;;;;;;;3.02;50.21;95428.25;4303181;33;20306;-60
2022/03/13 06:09:29;;;;;;;6.43;5.90;;;;;;;3.25;49.78;95422.75;4303234;33;20341;-61
2022/03/13 06:11:54;;;;;;;7.37;6.40;;;;;;;3.33;49.67;95429.38;4300635;33;20296;-60
2022/03/13 06:14:20;;;;;;;9.83;5.97;;;;;;;3.36;49.24;95428.91;4301640;33;20249;-61
2022/03/13 06:16:45;;;;;;;7.07;6.43;;;;;;;3.25;49.46;95425.38;4309303;33;20193;-61
2022/03/13 06:19:11;;;;;;;7.80;6.60;;;;;;;3.20;50.13;95424.53;4311225;33;20208;-61
2022/03/13 06:21:39;;;;;;;7.10;6.40;;;;;;;3.33;49.76;95429.38;4291153;33;20249;-61
2022/03/13 06:24:04;;;;;;;7.23;6.53;;;;;;;3.08;50.38;95432.53;4286600;33;20205;-61
2022/03/13 06:26:31;;;;;;;7.10;6.50;;;;;;;3.26;50.29;95434.03;4300080;33;20337;-60
2022/03/13 06:28:56;;;;;;;6.72;6.12;;;;;;;3.21;50.30;95426.09;4288010;33;20205;-61
2022/03/13 06:31:21;;;;;;;7.63;6.93;;;;;;;3.27;50.47;95431.19;4302234;33;20187;-61
2022/03/13 06:33:46;;;;;;;8.53;7.13;;;;;;;3.42;50.24;95430.56;4287972;33;20213;-61
2022/03/13 06:36:12;;;;;;;7.80;6.67;;;;;;;3.40;50.22;95433.41;4289905;33;20245;-61
2022/03/13 06:38:38;;;;;;;7.87;6.53;;;;;;;3.57;49.74;95432.53;4297823;33;20189;-61
2022/03/13 06:41:06;;;;;;;7.80;7.00;;;;;;;3.62;49.65;95428.16;4294106;33;20712;-61
2022/03/13 06:43:33;;;;;;;11.70;7.70;;;;;;;3.71;49.62;95431.12;4308192;33;20183;-61
2022/03/13 06:45:59;;;;;;;8.87;7.23;;;;;;;3.72;49.70;95436.13;4301786;33;20350;-61
2022/03/13 06:48:26;;;;;;;7.47;6.77;;;;;;;3.52;50.53;95433.31;4302899;33;20287;-61
2022/03/13 06:50:51;;;;;;;7.23;6.63;;;;;;;3.61;50.54;95431.00;4304276;33;20295;-61
2022/03/13 06:53:17;;;;;;;8.13;7.33;;;;;;;3.54;50.66;95435.66;4304326;33;20326;-61
2022/03/13 06:55:42;;;;;;;9.47;7.47;;;;;;;3.71;50.36;95439.78;4299064;33;20201;-61
2022/03/13 06:58:07;;;;;;;8.00;7.20;;;;;;;3.80;50.40;95446.16;4294916;33;20185;-61
2022/03/13 07:00:33;;;;;;;9.13;7.67;;;;;;;3.97;50.19;95448.69;4308323;33;20358;-61
2022/03/13 07:02:59;;;;;;;8.60;7.80;;;;;;;3.82;50.53;95448.53;4304114;33;20186;-61
2022/03/13 07:05:25;;;;;;;8.40;7.60;;;;;;;3.80;50.55;95453.25;4291800;33;20301;-61
2022/03/13 07:07:53;;;;;;;9.80;7.30;;;;;;;3.71;50.67;95452.13;4302361;33;20226;-61
2022/03/13 07:10:18;;;;;;;9.63;8.60;;;;;;;3.89;50.51;95459.66;4290801;33;20254;-61
2022/03/13 07:12:44;;;;;;;9.07;7.37;;;;;;;3.85;51.13;95452.50;4297309;33;20303;-59
2022/03/13 07:15:12;;;;;;;10.30;8.03;;;;;;;4.04;50.50;95451.13;4306063;33;20296;-61
2022/03/13 07:17:38;;;;;;;8.77;7.33;;;;;;;4.16;49.73;95458.84;4294798;33;20190;-61
2022/03/13 07:20:06;;;;;;;8.93;8.07;;;;;;;3.96;50.54;95454.19;4304282;33;20307;-61
2022/03/13 07:22:32;;;;;;;8.57;7.50;;;;;;;4.23;50.32;95456.78;4302579;33;20187;-61
2022/03/13 07:24:58;;;;;;;8.47;7.60;;;;;;;4.17;50.71;95457.78;4297874;33;20341;-61
2022/03/13 07:27:23;;;;;;;8.27;7.40;;;;;;;4.20;50.67;95454.66;4305338;33;20282;-60
2022/03/13 07:29:50;;;;;;;9.93;8.33;;;;;;;4.28;50.63;95452.38;4314251;33;20229;-61
2022/03/13 07:32:15;;;;;;;8.17;7.47;;;;;;;4.42;51.23;95453.53;4312586;33;20208;-61
2022/03/13 07:34:41;;;;;;;9.80;7.87;;;;;;;4.61;50.57;95456.56;4304734;33;20331;-61
2022/03/13 07:37:10;;;;;;;9.03;7.50;;;;;;;4.65;49.75;95455.03;4304721;33;20195;-61
2022/03/13 07:39:35;;;;;;;11.07;8.53;;;;;;;4.82;50.53;95452.25;4304638;33;20198;-61
2022/03/13 07:42:01;;;;;;;8.83;8.03;;;;;;;4.79;50.35;95450.91;4297968;33;20294;-61
2022/03/13 07:44:26;;;;;;;9.40;8.03;;;;;;;4.75;50.28;95457.72;4317920;33;20198;-61
2022/03/13 07:46:51;;;;;;;8.97;8.10;;;;;;;4.95;49.80;95451.03;4309410;33;20217;-61
2022/03/13 07:49:17;;;;;;;8.43;7.63;;;;;;;5.08;49.74;95453.19;4318185;33;20190;-61
2022/03/13 07:51:43;;;;;;;9.17;8.27;;;;;;;5.14;50.24;95450.34;4296031;33;20186;-61
2022/03/13 07:54:09;;;;;;;9.50;8.60;;;;;;;5.32;49.98;95448.31;4317963;33;20265;-61
2022/03/13 07:56:37;;;;;;;8.90;8.00;;;;;;;5.17;49.55;95451.66;4317969;33;20286;-61
2022/03/13 07:59:02;;;;;;;9.00;8.20;;;;;;;5.29;50.05;95446.97;4297867;33;20283;-61
2022/03/13 08:01:28;;;;;;;10.97;8.27;;;;;;;5.32;49.82;95445.69;4317964;33;20297;-61
2022/03/13 08:03:53;;;;;;;8.63;7.87;;;;;;;5.32;50.05;95445.69;4313066;33;20249;-61
2022/03/13 08:06:18;;;;;;;8.93;8.13;;;;;;;5.48;49.00;95448.09;4295890;33;20230;-61
2022/03/13 08:08:44;;;;;;;9.60;8.57;;;;;;;5.47;49.76;95445.72;4306373;33;20229;-61
2022/03/13 08:11:09;;;;;;;9.43;7.60;;;;;;;5.61;49.22;95440.78;4300615;33;20186;-61
2022/03/13 08:13:34;;;;;;;10.03;9.03;;;;;;;5.72;49.38;95448.44;4304360;33;20198;-61
2022/03/13 08:16:00;;;;;;;9.83;8.30;;;;;;;5.74;49.08;95442.94;4303227;33;20242;-61
2022/03/13 08:18:26;;;;;;;11.00;8.27;;;;;;;5.66;49.49;95446.06;4303184;33;20257;-61
2022/03/13 08:20:51;;;;;;;10.00;9.10;;;;;;;5.71;49.90;95446.88;4289912;33;20217;-61
2022/03/13 08:23:18;;;;;;;10.13;8.83;;;;;;;5.91;49.23;95448.00;4308942;33;20310;-60
2022/03/13 08:25:43;;;;;;;10.63;9.00;;;;;;;6.02;49.55;95452.25;4306737;33;20258;-61
2022/03/13 08:28:08;;;;;;;10.37;8.57;;;;;;;6.11;49.08;95440.12;4303414;33;20310;-61
2022/03/13 08:30:35;;;;;;;11.73;8.47;;;;;;;6.18;48.84;95438.81;4315017;33;20300;-61
2022/03/13 08:33:01;;;;;;;11.03;9.30;;;;;;;6.26;48.71;95434.06;4297499;33;20247;-61
2022/03/13 08:35:26;;;;;;;12.43;8.67;;;;;;;6.38;47.64;95439.88;4314682;33;20293;-61
2022/03/13 08:37:52;;;;;;;10.10;9.20;;;;;;;6.37;48.70;95436.47;4302658;33;20322;-61
2022/03/13 08:40:18;;;;;;;9.50;8.60;;;;;;;6.43;48.90;95432.00;4307736;33;20265;-61
2022/03/13 08:42:43;;;;;;;10.57;9.47;;;;;;;6.53;47.05;95432.75;4298787;33;20279;-61
2022/03/13 08:45:11;;;;;;;16.30;12.83;;;;;;;6.66;47.84;95439.34;4313223;33;20201;-61
2022/03/13 08:47:38;;;;;;;15.67;11.30;;;;;;;6.71;46.65;95438.53;4297976;33;20201;-61
2022/03/13 08:50:05;;;;;;;11.30;10.13;;;;;;;6.74;47.77;95435.37;4315444;33;20344;-61
2022/03/13 08:52:30;;;;;;;10.30;9.17;;;;;;;6.85;46.77;95445.66;4299858;33;20327;-61
2022/03/13 08:54:56;;;;;;;11.00;9.77;;;;;;;7.00;46.54;95442.19;4300051;33;20287;-61
2022/03/13 08:57:23;;;;;;;10.47;9.47;;;;;;;7.05;45.99;95436.13;4294244;33;20194;-61
2022/03/13 08:59:48;;;;;;;14.13;9.97;;;;;;;7.21;45.97;95440.28;4294931;33;20190;-62
2022/03/13 09:02:14;;;;;;;10.83;9.73;;;;;;;7.24;45.98;95442.41;4310289;33;20365;-61
2022/03/13 09:04:41;;;;;;;11.33;9.47;;;;;;;7.26;45.82;95442.94;4297570;33;20194;-61
2022/03/13 09:07:06;;;;;;;13.10;10.20;;;;;;;7.38;45.35;95439.97;4304848;33;20186;-61
2022/03/13 09:09:31;;;;;;;11.30;9.77;;;;;;;7.52;44.65;95438.31;4302557;33;20310;-61
2022/03/13 09:11:58;;;;;;;12.63;9.70;;;;;;;7.57;44.35;95447.00;4296426;33;20250;-61
2022/03/13 09:14:23;;;;;;;13.43;10.87;;;;;;;7.63;44.13;95439.06;4315358;33;20200;-61
2022/03/13 09:16:50;;;;;;;11.60;9.83;;;;;;;7.79;44.03;95438.72;4311054;33;20295;-61
2022/03/13 09:19:15;;;;;;;12.87;10.33;;;;;;;7.78;43.61;95439.00;4316412;33;20178;-60
2022/03/13 09:21:41;;;;;;;12.50;10.33;;;;;;;7.83;43.71;95438.97;4306446;33;20297;-61
2022/03/13 09:24:08;;;;;;;12.40;10.03;;;;;;;7.81;43.65;95439.25;4302782;33;20187;-61
2022/03/13 09:26:39;;;;;;;11.37;10.27;;;;;;;7.95;43.19;95439.41;4289701;33;20273;-60
2022/03/13 09:29:07;;;;;;;10.87;9.50;;;;;;;7.98;42.92;95430.94;4306110;33;20448;-61
2022/03/13 09:31:32;;;;;;;14.27;10.77;;;;;;;8.01;42.76;95432.25;4293648;33;20302;-61
2022/03/13 09:33:58;;;;;;;10.97;9.77;;;;;;;8.12;42.67;95434.56;4302406;33;20295;-61
2022/03/13 09:36:24;;;;;;;10.47;9.37;;;;;;;8.26;42.51;95432.09;4305473;33;20190;-61
2022/03/13 09:38:50;;;;;;;12.97;10.33;;;;;;;8.28;42.73;95433.41;4281736;33;20205;-61
2022/03/13 09:41:16;;;;;;;11.23;9.93;;;;;;;8.39;42.39;95430.69;4301026;33;20279;-62
2022/03/13 09:43:42;;;;;;;12.57;9.87;;;;;;;8.69;41.48;95432.31;4303373;33;20186;-61
2022/03/13 09:46:07;;;;;;;10.50;9.37;;;;;;;8.85;40.77;95429.25;4289993;33;20205;-61
2022/03/13 09:48:35;;;;;;;9.87;8.63;;;;;;;8.85;40.45;95426.59;4301803;33;20191;-61
2022/03/13 09:51:04;;;;;;;11.93;8.87;;;;;;;8.92;39.80;95429.72;4301672;33;20233;-61
2022/03/13 09:53:30;;;;;;;10.77;9.67;;;;;;;8.99;39.91;95433.88;4289008;33;20283;-61
2022/03/13 09:55:55;;;;;;;12.30;10.20;;;;;;;9.04;39.80;95423.25;4288943;33;20290;-61
2022/03/13 09:58:21;;;;;;;12.87;10.07;;;;;;;9.00;40.11;95424.88;4289080;33;20308;-61
2022/03/13 10:00:47;;;;;;;10.03;9.03;;;;;;;9.05;40.33;95436.19;4288354;33;20182;-61
2022/03/13 10:03:14;;;;;;;10.13;9.13;;;;;;;9.14;39.77;95431.88;4303829;33;20209;-61
2022/03/13 10:05:42;;;;;;;10.50;9.37;;;;;;;9.28;39.18;95424.03;4310929;33;20306;-61
2022/03/13 10:08:08;;;;;;;10.57;9.43;;;;;;;9.30;38.87;95419.25;4293200;33;20301;-61
2022/03/13 10:10:45;;;;;;;10.10;9.10;;;;;;;9.32;39.02;95427.72;4274029;33;20284;-61
2022/03/13 10:13:14;;;;;;;9.90;9.00;;;;;;;9.54;38.68;95417.38;4291030;33;20225;-61
2022/03/13 10:15:47;;;;;;;10.87;9.87;;;;;;;9.54;38.19;95416.59;4303066;33;20282;-61
2022/03/13 10:18:18;;;;;;;9.43;8.50;;;;;;;9.45;38.53;95415.63;4287325;33;20287;-61
2022/03/13 10:20:47;;;;;;;10.70;9.13;;;;;;;9.67;37.75;95421.19;4288913;33;20283;-61
2022/03/13 10:23:17;;;;;;;9.57;8.57;;;;;;;9.68;37.54;95414.03;4289759;33;20292;-61
2022/03/13 10:25:44;;;;;;;12.50;10.10;;;;;;;9.68;37.68;95408.72;4304935;33;20296;-61
2022/03/13 10:28:15;;;;;;;9.30;7.90;;;;;;;9.63;37.88;95399.78;4280392;33;20318;-61
2022/03/13 10:30:42;;;;;;;10.70;9.53;;;;;;;9.81;37.50;95400.84;4304042;33;20286;-61
2022/03/13 10:33:09;;;;;;;10.27;9.27;;;;;;;9.85;37.65;95390.47;4307445;33;20303;-61
2022/03/13 10:35:36;;;;;;;9.73;8.83;;;;;;;9.90;37.57;95404.44;4304404;33;20333;-61
2022/03/13 10:38:14;;;;;;;10.27;9.27;;;;;;;9.99;37.18;95400.06;4304292;33;20283;-61
2022/03/13 10:40:39;;;;;;;10.33;9.33;;;;;;;10.11;37.25;95396.22;4291790;33;20357;-61
2022/03/13 10:43:07;;;;;;;12.13;9.37;;;;;;;10.21;37.01;95399.50;4295934;33;20369;-61
2022/03/13 10:45:37;;;;;;;11.10;9.80;;;;;;;10.17;37.01;95393.19;4304458;33;20226;-62
2022/03/13 10:48:32;;;;;;;9.13;8.17;;;;;;;10.14;37.15;95391.13;4304607;33;20290;-61
2022/03/13 10:51:04;;;;;;;11.87;9.30;;;;;;;10.16;37.34;95388.97;4295618;33;20295;-61
2022/03/13 10:53:32;;;;;;;10.50;9.57;;;;;;;10.35;36.88;95396.13;4304069;33;20288;-61
2022/03/13 10:56:02;;;;;;;10.83;9.73;;;;;;;10.38;36.76;95395.56;4294263;33;20297;-61
2022/03/13 10:58:47;;;;;;;10.03;9.13;;;;;;;10.39;36.77;95383.88;4310069;33;20327;-61
2022/03/13 11:01:21;;;;;;;10.70;9.13;;;;;;;10.25;37.06;95379.31;4306222;33;20329;-61
2022/03/13 11:03:57;;;;;;;11.37;9.63;;;;;;;10.38;36.98;95387.63;4301535;33;20364;-60
2022/03/13 11:06:24;;;;;;;10.00;9.07;;;;;;;10.44;36.97;95386.44;4304188;33;20350;-61
2022/03/13 11:08:55;;;;;;;11.20;10.00;;;;;;;10.50;36.88;95391.38;4304452;33;20288;-60
2022/03/13 11:11:22;;;;;;;10.20;9.20;;;;;;;10.60;36.71;95379.78;4292259;33;20290;-62
2022/03/13 11:13:52;;;;;;;10.03;8.93;;;;;;;10.58;36.73;95387.28;4297723;33;20287;-61
2022/03/13 11:16:26;;;;;;;10.47;9.33;;;;;;;10.66;36.27;95390.03;4300107;33;20288;-61
2022/03/13 11:18:54;;;;;;;12.23;10.17;;;;;;;10.69;36.14;95386.00;4304117;33;20345;-62
2022/03/13 11:21:20;;;;;;;12.83;10.57;;;;;;;10.58;36.77;95392.59;4295901;33;20342;-61
2022/03/13 11:23:46;;;;;;;13.87;12.33;;;;;;;10.50;36.91;95385.28;4307322;33;20341;-62
2022/03/13 11:26:15;;;;;;;12.60;11.30;;;;;;;10.62;36.50;95375.78;4305297;33;20283;-61
2022/03/13 11:28:47;;;;;;;11.17;8.90;;;;;;;10.67;37.06;95380.22;4315010;33;20216;-61
2022/03/13 11:31:35;;;;;;;10.83;9.60;;;;;;;10.89;36.11;95372.38;4290874;33;20306;-61
2022/03/13 11:34:21;;;;;;;11.83;9.93;;;;;;;10.91;36.25;95378.19;4315921;33;20292;-61
2022/03/13 11:36:51;;;;;;;11.40;9.67;;;;;;;11.05;35.62;95372.09;4297365;33;20299;-61